Time;durP1;ratioP1;P1;durP2;ratioP2;P2;SDS_P1;SDS_P2;PMS_P1;PMS_P2;Temp;Humidity;BMP_temperature;BMP_pressure;BME280_temperature;BME280_humidity;BME280_pressure;Samples;Min_cycle;Max_cycle;Signal;HPM_P1;HPM_P2
2022/09/26 00:00:10;;;;;;;3.13;2.70;;;14.00;98.10;;;;;;5120905;28;20446;-83
2022/09/26 00:02:37;;;;;;;5.43;2.70;;;14.10;98.40;;;;;;5090166;28;20511;-83
2022/09/26 00:05:04;;;;;;;3.33;3.03;;;14.20;98.30;;;;;;5113569;28;20577;-83
2022/09/26 00:07:31;;;;;;;4.03;2.87;;;14.20;98.20;;;;;;5105446;28;20469;-83
2022/09/26 00:09:57;;;;;;;4.00;2.87;;;14.40;97.80;;;;;;5095304;28;20442;-82
2022/09/26 00:12:24;;;;;;;3.43;2.70;;;14.20;97.70;;;;;;5108400;28;20482;-82
2022/09/26 00:14:51;;;;;;;4.30;2.70;;;14.20;97.80;;;;;;5098890;28;20458;-81
2022/09/26 00:17:18;;;;;;;2.67;2.43;;;14.10;98.00;;;;;;5099153;28;20442;-83
2022/09/26 00:19:45;;;;;;;2.33;2.13;;;14.10;98.40;;;;;;5101300;28;20442;-81
2022/09/26 00:22:12;;;;;;;7.47;3.70;;;14.10;98.00;;;;;;5116288;28;20477;-83
2022/09/26 00:24:39;;;;;;;2.80;2.57;;;14.20;97.80;;;;;;5114944;28;20481;-83
2022/09/26 00:27:05;;;;;;;4.43;2.40;;;14.10;97.70;;;;;;5096183;28;20476;-83
2022/09/26 00:29:32;;;;;;;2.93;2.50;;;14.00;98.00;;;;;;5117332;28;20441;-81
2022/09/26 00:31:59;;;;;;;6.80;3.13;;;13.90;98.20;;;;;;5114889;28;20474;-81
2022/09/26 00:34:26;;;;;;;3.53;3.23;;;14.10;98.00;;;;;;5134101;28;20445;-81
2022/09/26 00:36:52;;;;;;;4.20;2.67;;;14.20;97.80;;;;;;5113461;28;20449;-83
2022/09/26 00:39:19;;;;;;;3.60;3.20;;;14.10;97.80;;;;;;5101113;28;20947;-83
2022/09/26 00:41:46;;;;;;;4.00;2.63;;;14.00;97.80;;;;;;5109299;28;20454;-81
2022/09/26 00:44:47;;;;;;;4.77;2.47;;;14.00;98.00;;;;;;5116347;28;20477;-82
2022/09/26 00:47:46;;;;;;;5.07;3.07;;;13.80;98.10;;;;;;5110489;28;20429;-83
2022/09/26 00:50:19;;;;;;;3.50;2.60;;;13.70;98.50;;;;;;5121807;28;20434;-82
2022/09/26 00:52:54;;;;;;;2.87;2.40;;;13.80;98.50;;;;;;5121491;28;20460;-83
2022/09/26 00:55:24;;;;;;;5.63;2.63;;;13.80;98.50;;;;;;5140074;28;20461;-81
2022/09/26 00:57:57;;;;;;;3.10;2.80;;;13.70;98.50;;;;;;5138500;28;20454;-83
2022/09/26 01:00:24;;;;;;;4.23;2.30;;;13.70;98.70;;;;;;5127552;28;20825;-82
2022/09/26 01:02:52;;;;;;;3.00;2.50;;;13.80;98.70;;;;;;5120807;28;20476;-82
2022/09/26 01:05:21;;;;;;;4.63;2.60;;;13.70;98.70;;;;;;5118443;28;20907;-83
2022/09/26 01:07:49;;;;;;;2.80;2.60;;;13.60;98.70;;;;;;5099953;28;20479;-81
2022/09/26 01:10:17;;;;;;;3.40;2.43;;;13.60;99.00;;;;;;5096016;28;20442;-83
2022/09/26 01:12:44;;;;;;;4.90;2.50;;;13.70;98.90;;;;;;5092211;28;20527;-83
2022/09/26 01:15:11;;;;;;;3.73;2.63;;;13.70;98.90;;;;;;5098063;28;20454;-83
2022/09/26 01:17:40;;;;;;;4.77;2.43;;;13.60;98.90;;;;;;5099480;28;20445;-83
2022/09/26 01:20:11;;;;;;;3.23;2.20;;;13.50;99.20;;;;;;5116609;28;22382;-83
2022/09/26 01:23:04;;;;;;;2.80;2.27;;;13.40;99.50;;;;;;5097804;28;20574;-83
2022/09/26 01:26:08;;;;;;;3.27;2.40;;;13.40;99.80;;;;;;5100347;28;20449;-83
2022/09/26 01:28:47;;;;;;;5.13;3.17;;;13.50;99.60;;;;;;5093808;28;20449;-82
2022/09/26 01:31:42;;;;;;;3.93;2.70;;;13.80;99.20;;;;;;5112867;28;20446;-84
2022/09/26 01:34:35;;;;;;;5.27;2.67;;;13.80;98.90;;;;;;5098632;28;20438;-83
2022/09/26 01:37:36;;;;;;;3.63;2.50;;;13.70;98.80;;;;;;5096237;28;20481;-83
2022/09/26 01:40:14;;;;;;;3.57;3.20;;;13.70;98.90;;;;;;5085704;28;20533;-82
2022/09/26 01:43:01;;;;;;;2.60;2.40;;;13.70;98.80;;;;;;5093712;28;20512;-83
2022/09/26 01:45:49;;;;;;;4.53;3.83;;;13.70;98.80;;;;;;5089356;28;20512;-84
2022/09/26 01:48:26;;;;;;;3.07;2.63;;;13.50;99.00;;;;;;5108967;28;20547;-83
2022/09/26 01:51:05;;;;;;;4.73;3.03;;;13.70;99.10;;;;;;5097163;28;20476;-83
2022/09/26 01:53:54;;;;;;;3.10;2.47;;;13.50;99.10;;;;;;5089913;28;20989;-82
2022/09/26 01:56:27;;;;;;;3.67;2.80;;;13.50;99.30;;;;;;5109164;28;20477;-82
2022/09/26 01:59:11;;;;;;;3.33;2.67;;;13.60;99.20;;;;;;5139070;28;20449;-82
2022/09/26 02:01:43;;;;;;;2.80;2.60;;;13.60;99.30;;;;;;5117060;28;20473;-81
2022/09/26 02:04:21;;;;;;;2.73;2.53;;;13.50;99.30;;;;;;5104459;28;20824;-82
2022/09/26 02:07:14;;;;;;;3.03;2.40;;;13.60;99.40;;;;;;5096024;28;20422;-81
2022/09/26 02:09:51;;;;;;;5.63;2.97;;;13.40;99.40;;;;;;5093085;28;21009;-81
2022/09/26 02:12:23;;;;;;;4.40;3.00;;;13.50;99.70;;;;;;5115788;28;20593;-83
2022/09/26 02:14:55;;;;;;;3.00;2.40;;;13.60;99.50;;;;;;5097709;28;20453;-82
2022/09/26 02:17:30;;;;;;;4.10;3.20;;;13.60;99.60;;;;;;5095516;28;20521;-82
2022/09/26 02:20:01;;;;;;;3.10;2.80;;;13.60;99.50;;;;;;5110350;28;20986;-82
2022/09/26 02:22:33;;;;;;;4.23;2.93;;;13.50;99.70;;;;;;5096544;28;20495;-83
2022/09/26 02:25:01;;;;;;;2.53;2.33;;;13.40;99.90;;;;;;5097428;28;20486;-82
2022/09/26 02:27:28;;;;;;;6.77;3.10;;;13.40;99.90;;;;;;5100367;28;20461;-81
2022/09/26 02:29:56;;;;;;;3.00;2.70;;;13.30;99.90;;;;;;5097504;28;20450;-82
2022/09/26 02:32:29;;;;;;;3.97;2.70;;;13.30;99.90;;;;;;5096857;28;20474;-83
2022/09/26 02:34:57;;;;;;;6.30;2.90;;;13.30;99.90;;;;;;5092326;28;20445;-81
2022/09/26 02:37:27;;;;;;;4.20;2.80;;;13.30;99.90;;;;;;5093648;28;20837;-83
2022/09/26 02:39:55;;;;;;;2.70;2.50;;;13.10;99.90;;;;;;5113311;28;20451;-83
2022/09/26 02:42:37;;;;;;;3.43;2.63;;;13.20;99.90;;;;;;5090326;28;20475;-83
2022/09/26 02:45:17;;;;;;;2.87;2.10;;;13.30;99.90;;;;;;5097137;28;20485;-83
2022/09/26 02:48:23;;;;;;;5.00;2.80;;;13.30;99.90;;;;;;5107653;28;20503;-83
2022/09/26 02:50:56;;;;;;;4.33;3.97;;;13.30;99.90;;;;;;5088641;28;20538;-83
2022/09/26 02:53:25;;;;;;;3.03;2.70;;;13.10;99.90;;;;;;5088550;28;20458;-82
2022/09/26 02:56:08;;;;;;;2.60;2.40;;;13.20;99.90;;;;;;5090501;28;20900;-84
2022/09/26 02:58:47;;;;;;;4.10;3.20;;;13.20;99.90;;;;;;5093036;28;20872;-84
2022/09/26 03:01:27;;;;;;;3.90;3.23;;;13.40;99.90;;;;;;5109473;28;20441;-82
2022/09/26 03:04:19;;;;;;;4.03;2.57;;;13.40;99.90;;;;;;5086233;28;20485;-81
2022/09/26 03:06:52;;;;;;;5.07;2.80;;;13.60;99.90;;;;;;5114211;28;20518;-84
2022/09/26 03:09:22;;;;;;;3.63;3.33;;;13.40;99.90;;;;;;5097460;28;20437;-83
2022/09/26 03:11:56;;;;;;;3.00;2.40;;;13.50;99.90;;;;;;5110755;28;20508;-83
2022/09/26 03:14:23;;;;;;;4.60;3.43;;;13.40;99.90;;;;;;5115275;28;20449;-83
2022/09/26 03:16:51;;;;;;;4.77;3.00;;;13.40;99.90;;;;;;5113468;28;20502;-83
2022/09/26 03:19:42;;;;;;;3.83;3.10;;;13.30;99.90;;;;;;5093881;28;20441;-83
2022/09/26 03:22:09;;;;;;;5.50;3.30;;;13.30;99.90;;;;;;5097621;28;20475;-82
2022/09/26 03:24:36;;;;;;;4.47;3.70;;;13.40;99.90;;;;;;5098772;28;20911;-81
2022/09/26 03:27:04;;;;;;;6.20;3.77;;;13.40;99.90;;;;;;5114580;28;20550;-83
2022/09/26 03:29:31;;;;;;;3.60;3.30;;;13.30;99.90;;;;;;5106699;28;20457;-82
2022/09/26 03:31:59;;;;;;;4.50;3.83;;;13.20;99.90;;;;;;5091936;28;20548;-83
2022/09/26 03:34:26;;;;;;;5.00;3.30;;;13.20;99.90;;;;;;5117374;28;21203;-82
2022/09/26 03:36:54;;;;;;;4.20;3.80;;;13.10;99.90;;;;;;5112191;28;20445;-82
2022/09/26 03:39:20;;;;;;;6.97;3.90;;;13.20;99.90;;;;;;5116279;28;20860;-83
2022/09/26 03:41:47;;;;;;;6.33;4.60;;;13.20;99.90;;;;;;5096873;28;20481;-83
2022/09/26 03:44:14;;;;;;;5.47;4.60;;;13.10;99.90;;;;;;5092162;28;20540;-83
2022/09/26 03:46:44;;;;;;;5.47;4.00;;;13.10;99.90;;;;;;5097472;28;20467;-80
2022/09/26 03:49:11;;;;;;;6.43;4.77;;;13.10;99.90;;;;;;5109567;28;20441;-80
2022/09/26 03:51:37;;;;;;;8.00;5.20;;;13.00;99.90;;;;;;5119964;28;20526;-80
2022/09/26 03:54:05;;;;;;;6.00;4.80;;;13.10;99.90;;;;;;5094865;28;20941;-83
2022/09/26 03:56:31;;;;;;;6.13;4.70;;;13.10;99.90;;;;;;5091311;28;20762;-84
2022/09/26 03:58:58;;;;;;;8.53;5.30;;;13.20;99.90;;;;;;5111998;28;20962;-83
2022/09/26 04:01:25;;;;;;;6.20;5.27;;;13.20;99.90;;;;;;5111906;28;20540;-82
2022/09/26 04:03:52;;;;;;;5.77;4.53;;;13.20;99.90;;;;;;5115162;28;20481;-83
2022/09/26 04:06:20;;;;;;;6.90;5.37;;;13.20;99.90;;;;;;5115105;28;20453;-83
2022/09/26 04:08:48;;;;;;;6.90;6.20;;;13.20;99.90;;;;;;5119994;28;20471;-81
2022/09/26 04:11:19;;;;;;;7.60;5.63;;;13.30;99.90;;;;;;5131215;28;20446;-80
2022/09/26 04:13:46;;;;;;;7.73;6.03;;;13.30;99.90;;;;;;5113768;28;20518;-83
2022/09/26 04:16:22;;;;;;;7.43;5.60;;;13.30;99.90;;;;;;5101235;28;20454;-83
2022/09/26 04:18:55;;;;;;;9.50;6.33;;;13.30;99.90;;;;;;5111335;28;20478;-79
2022/09/26 04:21:29;;;;;;;7.27;5.50;;;13.20;99.90;;;;;;5115530;28;20483;-81
2022/09/26 04:23:57;;;;;;;7.13;5.60;;;13.30;99.90;;;;;;5101716;28;20469;-81
2022/09/26 04:26:24;;;;;;;8.17;6.27;;;13.20;99.90;;;;;;5110271;28;20434;-82
2022/09/26 04:28:54;;;;;;;7.70;5.43;;;13.20;99.90;;;;;;5120332;28;20438;-82
2022/09/26 04:31:22;;;;;;;7.97;5.27;;;13.20;99.90;;;;;;5130417;28;20445;-83
2022/09/26 04:33:56;;;;;;;6.10;5.50;;;13.20;99.90;;;;;;5118515;28;20548;-81
2022/09/26 04:36:23;;;;;;;7.83;6.70;;;13.10;99.90;;;;;;5138166;28;21108;-82
2022/09/26 04:38:52;;;;;;;7.17;5.37;;;13.20;99.90;;;;;;5108902;28;20476;-83
2022/09/26 04:41:21;;;;;;;7.73;5.73;;;13.10;99.90;;;;;;5131002;28;20537;-83
2022/09/26 04:43:48;;;;;;;8.20;6.80;;;13.10;99.90;;;;;;5101074;28;20556;-83
2022/09/26 04:46:19;;;;;;;7.83;5.93;;;13.10;99.90;;;;;;5117029;28;20486;-81
2022/09/26 04:48:53;;;;;;;6.23;5.30;;;13.20;99.90;;;;;;5100205;28;20560;-84
2022/09/26 04:51:23;;;;;;;6.87;5.77;;;13.10;99.90;;;;;;5100697;28;20453;-82
2022/09/26 04:53:51;;;;;;;9.27;7.07;;;13.00;99.90;;;;;;5114152;28;20480;-83
2022/09/26 04:56:20;;;;;;;7.10;5.77;;;13.10;99.90;;;;;;5097657;28;20844;-84
2022/09/26 04:58:49;;;;;;;9.23;7.07;;;13.10;99.90;;;;;;5096196;28;22954;-84
2022/09/26 05:01:18;;;;;;;9.30;6.77;;;13.10;99.90;;;;;;5114909;28;21155;-83
2022/09/26 05:03:45;;;;;;;6.93;5.50;;;13.10;99.90;;;;;;5108353;28;20535;-84
2022/09/26 05:06:16;;;;;;;8.07;5.27;;;13.00;99.90;;;;;;5099080;28;20477;-84
2022/09/26 05:08:45;;;;;;;8.37;5.70;;;13.10;99.90;;;;;;5118378;28;20454;-82
2022/09/26 05:11:14;;;;;;;7.07;6.37;;;13.00;99.90;;;;;;5108063;28;21041;-83
2022/09/26 05:13:43;;;;;;;8.50;6.60;;;13.10;99.90;;;;;;5119672;28;20497;-83
2022/09/26 05:16:13;;;;;;;12.57;6.90;;;13.00;99.90;;;;;;5129092;28;20475;-82
2022/09/26 05:18:40;;;;;;;7.47;6.53;;;12.90;99.90;;;;;;5083084;28;20442;-82
2022/09/26 05:21:10;;;;;;;10.10;8.23;;;13.00;99.90;;;;;;5107349;28;20521;-81
2022/09/26 05:26:40;;;;;;;10.00;7.20;;;13.00;99.90;;;;;;5128406;28;20504;-81
2022/09/26 05:29:08;;;;;;;7.83;6.20;;;13.00;99.90;;;;;;5104552;28;22550;-81
2022/09/26 05:31:38;;;;;;;8.80;6.37;;;12.90;99.90;;;;;;5113377;28;20446;-83
2022/09/26 05:34:09;;;;;;;6.97;5.80;;;12.90;99.90;;;;;;5115246;28;20448;-82
2022/09/26 05:36:41;;;;;;;7.80;6.47;;;13.00;99.90;;;;;;5118469;28;20425;-82
2022/09/26 05:41:58;;;;;;;8.57;7.00;;;13.00;99.90;;;;;;5073623;28;20557;-82
2022/09/26 05:44:26;;;;;;;7.00;6.10;;;12.90;99.90;;;;;;5115987;28;20461;-83
2022/09/26 05:46:56;;;;;;;8.53;7.20;;;12.90;99.90;;;;;;5106449;28;20477;-83
2022/09/26 05:49:24;;;;;;;11.70;7.07;;;13.10;99.90;;;;;;5091987;28;20844;-83
2022/09/26 05:51:52;;;;;;;9.40;7.37;;;13.10;99.90;;;;;;5096255;28;20461;-82
2022/09/26 05:54:19;;;;;;;7.30;6.07;;;12.90;99.90;;;;;;5097124;28;20478;-81
2022/09/26 05:56:46;;;;;;;9.10;6.30;;;13.00;99.90;;;;;;5109500;28;20435;-83
2022/09/26 05:59:13;;;;;;;7.07;5.83;;;13.00;99.90;;;;;;5113434;28;20499;-83
2022/09/26 06:01:47;;;;;;;7.47;5.00;;;13.10;99.90;;;;;;5085919;28;20443;-82
2022/09/26 06:04:14;;;;;;;8.97;6.60;;;13.00;99.90;;;;;;5106572;28;20450;-83
2022/09/26 06:06:42;;;;;;;8.00;6.43;;;13.00;99.90;;;;;;5090591;28;20460;-84
2022/09/26 06:09:09;;;;;;;7.00;6.17;;;13.10;99.90;;;;;;5114090;28;20462;-82
2022/09/26 06:11:38;;;;;;;6.20;5.60;;;13.10;99.90;;;;;;5112958;28;20456;-82
2022/09/26 06:14:05;;;;;;;7.50;6.50;;;13.20;99.90;;;;;;5117607;28;20480;-84
2022/09/26 06:16:36;;;;;;;6.57;5.93;;;13.20;99.90;;;;;;5102137;28;20473;-84
2022/09/26 06:19:06;;;;;;;7.67;6.40;;;13.10;99.90;;;;;;5110843;28;20519;-83
2022/09/26 06:21:38;;;;;;;5.93;5.33;;;13.30;99.90;;;;;;5090088;28;20468;-83
2022/09/26 06:24:05;;;;;;;5.77;5.27;;;13.30;99.90;;;;;;5092895;28;20851;-84
2022/09/26 06:26:36;;;;;;;6.20;5.50;;;13.20;99.90;;;;;;5114294;28;20478;-83
2022/09/26 06:29:03;;;;;;;8.17;5.37;;;13.30;99.90;;;;;;5099744;28;20454;-83
2022/09/26 06:31:30;;;;;;;6.73;5.20;;;13.50;99.90;;;;;;5091189;28;20526;-82
2022/09/26 06:33:57;;;;;;;6.70;4.43;;;13.50;99.60;;;;;;5112625;28;20477;-83
2022/09/26 06:36:24;;;;;;;5.03;4.50;;;13.40;99.80;;;;;;5112449;28;20481;-81
2022/09/26 06:38:52;;;;;;;5.37;4.10;;;13.50;99.60;;;;;;5097544;28;20445;-83
2022/09/26 06:41:18;;;;;;;5.97;4.47;;;13.50;99.10;;;;;;5109256;28;20967;-82
2022/09/26 06:43:46;;;;;;;3.93;3.63;;;13.60;99.10;;;;;;5109342;28;20900;-84
2022/09/26 06:46:13;;;;;;;5.53;3.80;;;13.90;98.50;;;;;;5108945;28;20486;-83
2022/09/26 06:48:40;;;;;;;4.80;3.17;;;14.00;97.70;;;;;;5120238;28;20469;-83
2022/09/26 06:51:08;;;;;;;3.70;3.30;;;14.00;97.70;;;;;;5125660;28;20446;-82
2022/09/26 06:53:34;;;;;;;5.07;3.40;;;14.10;97.40;;;;;;5113138;28;20473;-81
2022/09/26 06:56:01;;;;;;;3.10;2.73;;;14.00;97.40;;;;;;5124513;28;20455;-82
2022/09/26 06:58:28;;;;;;;4.40;2.97;;;14.10;97.20;;;;;;5117811;28;20476;-84
2022/09/26 07:00:55;;;;;;;7.23;3.37;;;14.10;97.10;;;;;;5127526;28;20450;-83
2022/09/26 07:03:24;;;;;;;3.60;2.83;;;14.00;97.10;;;;;;5121169;28;20438;-82
2022/09/26 07:05:56;;;;;;;3.63;2.57;;;14.10;97.00;;;;;;5108705;28;20793;-83
2022/09/26 07:08:23;;;;;;;4.40;2.73;;;14.10;96.90;;;;;;5098992;28;20461;-83
2022/09/26 07:11:09;;;;;;;3.20;2.70;;;14.20;96.80;;;;;;5112254;28;20464;-82
2022/09/26 07:13:59;;;;;;;5.10;2.77;;;14.20;96.60;;;;;;5083645;28;20466;-82
2022/09/26 07:16:25;;;;;;;3.50;2.40;;;14.20;96.60;;;;;;5106387;28;20468;-80
2022/09/26 07:18:53;;;;;;;3.03;2.20;;;14.10;96.80;;;;;;5098518;28;20485;-81
2022/09/26 07:21:20;;;;;;;2.73;2.43;;;14.10;96.50;;;;;;5102347;28;20447;-82
2022/09/26 07:23:47;;;;;;;2.50;2.30;;;14.10;96.80;;;;;;5097174;28;20542;-83
2022/09/26 07:26:13;;;;;;;3.50;2.43;;;14.20;96.50;;;;;;5108275;28;20517;-81
2022/09/26 07:28:40;;;;;;;2.60;2.10;;;14.10;96.60;;;;;;5097771;28;20465;-83
2022/09/26 07:31:07;;;;;;;3.27;2.90;;;14.10;96.70;;;;;;5113859;28;20483;-84
2022/09/26 07:33:34;;;;;;;3.37;2.63;;;14.10;96.90;;;;;;5109353;28;20475;-82
2022/09/26 07:36:00;;;;;;;3.53;2.67;;;14.20;96.80;;;;;;5093573;28;20457;-84
2022/09/26 07:38:31;;;;;;;3.03;2.50;;;14.20;96.80;;;;;;5114249;28;20446;-83
2022/09/26 07:40:59;;;;;;;4.13;2.40;;;14.30;96.50;;;;;;5094292;28;20473;-83
2022/09/26 07:43:27;;;;;;;3.17;2.03;;;14.30;96.60;;;;;;5113946;28;20485;-81
2022/09/26 07:51:44;;;;;;;5.10;2.83;;;14.30;96.40;;;;;;5120088;28;20449;-81
2022/09/26 07:54:11;;;;;;;3.10;2.00;;;14.30;96.60;;;;;;5125805;28;20464;-81
2022/09/26 07:56:39;;;;;;;2.97;2.37;;;14.30;96.80;;;;;;5114754;28;20445;-82
2022/09/26 07:59:06;;;;;;;2.07;1.97;;;14.30;96.70;;;;;;5097228;28;20541;-81
2022/09/26 08:01:36;;;;;;;2.20;1.97;;;14.40;96.50;;;;;;5105695;28;20457;-81
2022/09/26 08:04:05;;;;;;;2.00;1.70;;;14.30;96.40;;;;;;5098544;28;20534;-82
2022/09/26 08:06:33;;;;;;;2.70;2.13;;;14.30;96.80;;;;;;5095880;28;20551;-82
2022/09/26 08:09:04;;;;;;;2.50;2.00;;;14.20;96.80;;;;;;5099385;28;20488;-83
2022/09/26 08:11:37;;;;;;;4.03;1.70;;;14.30;97.20;;;;;;5109771;28;20443;-83
2022/09/26 08:14:04;;;;;;;2.23;1.77;;;14.30;97.00;;;;;;5117394;28;20439;-83
2022/09/26 08:16:31;;;;;;;3.07;1.87;;;14.30;96.80;;;;;;5115991;28;20457;-83
2022/09/26 08:19:07;;;;;;;3.07;1.80;;;14.40;96.70;;;;;;5094409;28;21129;-84
2022/09/26 08:21:34;;;;;;;1.87;1.67;;;14.40;96.90;;;;;;5092568;28;20549;-83
2022/09/26 08:24:01;;;;;;;2.80;2.00;;;14.30;97.00;;;;;;5106985;28;20479;-81
2022/09/26 08:26:28;;;;;;;2.17;1.67;;;14.00;97.40;;;;;;5107897;28;20538;-81
2022/09/26 08:29:01;;;;;;;3.10;1.40;;;14.10;98.10;;;;;;5112093;28;20436;-81
2022/09/26 08:31:28;;;;;;;2.37;2.13;;;14.30;96.60;;;;;;5127851;28;20461;-82
2022/09/26 08:33:58;;;;;;;2.30;2.13;;;14.20;96.70;;;;;;5109109;28;20483;-84
2022/09/26 08:36:25;;;;;;;2.07;1.30;;;13.90;97.60;;;;;;5127290;28;20442;-82
2022/09/26 08:38:53;;;;;;;3.30;2.53;;;13.70;98.20;;;;;;5119169;28;20444;-84
2022/09/26 08:41:32;;;;;;;1.73;1.50;;;13.80;98.80;;;;;;5105413;28;20446;-82
2022/09/26 08:44:11;;;;;;;6.70;1.67;;;13.80;98.90;;;;;;5126757;28;20449;-83
2022/09/26 08:47:03;;;;;;;1.70;1.13;;;14.30;98.30;;;;;;5094918;28;20499;-84
2022/09/26 08:49:34;;;;;;;3.40;1.50;;;14.40;97.50;;;;;;5112503;28;20528;-81
2022/09/26 08:52:11;;;;;;;2.10;1.30;;;14.30;97.60;;;;;;5123743;28;20458;-83
2022/09/26 08:54:41;;;;;;;1.60;1.20;;;14.20;98.00;;;;;;5138428;28;20465;-81
2022/09/26 08:57:17;;;;;;;1.87;1.50;;;14.20;98.10;;;;;;5137320;28;20495;-81
2022/09/26 08:59:47;;;;;;;11.17;2.20;;;14.30;98.20;;;;;;5130846;28;20510;-82
2022/09/26 09:02:30;;;;;;;1.60;1.20;;;14.10;98.40;;;;;;5118376;28;20977;-80
2022/09/26 09:05:27;;;;;;;3.73;1.63;;;14.30;98.10;;;;;;5128877;28;20442;-81
2022/09/26 09:07:57;;;;;;;1.53;1.10;;;14.20;98.40;;;;;;5123479;28;20441;-82
2022/09/26 09:10:54;;;;;;;1.47;1.30;;;13.90;99.00;;;;;;5098754;28;20477;-81
2022/09/26 09:13:44;;;;;;;1.20;1.10;;;14.20;98.60;;;;;;5111375;28;21185;-81
2022/09/26 09:16:25;;;;;;;1.87;1.40;;;14.10;98.90;;;;;;5115753;28;20465;-81
2022/09/26 09:19:30;;;;;;;3.33;1.47;;;14.10;99.30;;;;;;5103247;28;20569;-83
2022/09/26 09:22:06;;;;;;;1.90;1.37;;;13.90;99.60;;;;;;5100193;28;20534;-83
2022/09/26 09:24:36;;;;;;;3.33;1.47;;;13.90;99.90;;;;;;5114876;28;20485;-83
2022/09/26 09:27:12;;;;;;;2.03;1.67;;;13.80;99.90;;;;;;5116614;28;21001;-83
2022/09/26 09:30:03;;;;;;;3.63;1.40;;;13.80;99.90;;;;;;5102519;28;20434;-86
2022/09/26 09:32:49;;;;;;;1.77;1.60;;;13.80;99.90;;;;;;5101533;28;20499;-81
2022/09/26 09:35:22;;;;;;;1.50;1.30;;;13.80;99.90;;;;;;5118796;28;20449;-83
2022/09/26 09:37:52;;;;;;;4.57;1.90;;;13.80;99.90;;;;;;5093435;28;20474;-82
2022/09/26 09:40:27;;;;;;;5.67;1.83;;;13.80;99.90;;;;;;5097763;28;20500;-83
2022/09/26 09:43:24;;;;;;;2.10;1.73;;;13.80;99.90;;;;;;5073609;28;20552;-83
2022/09/26 09:45:56;;;;;;;1.83;1.73;;;13.80;99.90;;;;;;5100054;28;20544;-81
2022/09/26 09:48:26;;;;;;;2.73;2.17;;;13.80;99.90;;;;;;5080553;28;20446;-81
2022/09/26 09:51:26;;;;;;;3.17;2.20;;;13.70;99.90;;;;;;5098176;28;20451;-81
2022/09/26 09:54:14;;;;;;;2.50;1.57;;;13.80;99.90;;;;;;5086972;28;21215;-81
2022/09/26 09:57:10;;;;;;;1.70;1.50;;;13.90;99.90;;;;;;5089259;28;20835;-81
2022/09/26 09:59:40;;;;;;;1.90;1.43;;;13.80;99.90;;;;;;5103335;28;20466;-82
2022/09/26 10:02:28;;;;;;;1.93;1.73;;;13.90;99.90;;;;;;5099074;28;20466;-82
2022/09/26 10:05:23;;;;;;;3.23;1.80;;;13.90;99.90;;;;;;5104143;28;20449;-81
2022/09/26 10:07:58;;;;;;;3.20;2.00;;;13.90;99.90;;;;;;5082402;28;20437;-81
2022/09/26 10:10:45;;;;;;;3.57;1.87;;;13.80;99.90;;;;;;5106746;28;20425;-82
2022/09/26 10:13:12;;;;;;;2.10;1.90;;;14.00;99.90;;;;;;5099208;28;20457;-83
2022/09/26 10:15:56;;;;;;;2.87;1.73;;;13.90;99.90;;;;;;5091830;28;20448;-83
2022/09/26 10:18:23;;;;;;;1.67;1.57;;;13.90;99.90;;;;;;5087796;28;21384;-83
2022/09/26 10:21:08;;;;;;;2.93;2.23;;;13.90;99.90;;;;;;5085629;28;20438;-83
2022/09/26 10:23:41;;;;;;;4.30;2.17;;;13.90;99.90;;;;;;5079254;28;20470;-83
2022/09/26 10:26:10;;;;;;;3.27;1.70;;;14.10;99.90;;;;;;5080863;28;20473;-82
2022/09/26 10:28:55;;;;;;;2.60;2.17;;;14.10;99.90;;;;;;5083327;28;20555;-82
2022/09/26 10:31:35;;;;;;;3.63;1.90;;;14.10;99.90;;;;;;5084567;28;20467;-82
2022/09/26 10:34:20;;;;;;;1.97;1.80;;;14.10;99.90;;;;;;5095477;27;20426;-84
2022/09/26 10:36:47;;;;;;;2.00;1.90;;;14.00;99.90;;;;;;5094771;28;20476;-82
2022/09/26 10:42:21;;;;;;;3.40;1.93;;;14.10;99.90;;;;;;5095992;28;20556;-82
2022/09/26 10:44:49;;;;;;;4.00;2.20;;;14.10;99.90;;;;;;5077344;28;20426;-82
2022/09/26 10:47:25;;;;;;;3.03;2.37;;;14.10;99.90;;;;;;5084891;28;20470;-81
2022/09/26 10:49:57;;;;;;;11.83;2.03;;;14.00;99.90;;;;;;5079388;28;20480;-83
2022/09/26 10:52:34;;;;;;;4.77;2.47;;;14.20;99.90;;;;;;5093806;28;20465;-83
2022/09/26 10:55:16;;;;;;;4.07;2.10;;;14.20;99.90;;;;;;5096044;28;20445;-83
2022/09/26 10:57:47;;;;;;;3.80;2.47;;;14.20;99.90;;;;;;5094724;28;20514;-82
2022/09/26 11:00:32;;;;;;;3.90;2.43;;;14.10;99.90;;;;;;5093466;28;21921;-82
2022/09/26 11:02:59;;;;;;;2.83;2.63;;;14.00;99.90;;;;;;5096656;28;20528;-84
2022/09/26 11:05:56;;;;;;;2.83;2.20;;;14.00;99.90;;;;;;5097849;28;20458;-80
2022/09/26 11:08:36;;;;;;;2.73;2.03;;;14.20;99.90;;;;;;5097862;28;20491;-82
2022/09/26 11:11:14;;;;;;;2.20;2.00;;;14.20;99.90;;;;;;5083252;28;20481;-82
2022/09/26 11:14:02;;;;;;;4.73;2.60;;;14.40;99.90;;;;;;5100262;28;22105;-83
2022/09/26 11:16:54;;;;;;;2.30;2.10;;;14.40;99.90;;;;;;5082857;28;20454;-81
2022/09/26 11:19:41;;;;;;;3.30;2.20;;;14.10;99.90;;;;;;5099281;28;20523;-84
2022/09/26 11:22:18;;;;;;;2.43;2.20;;;14.40;99.90;;;;;;5101869;28;20469;-83
2022/09/26 11:25:10;;;;;;;2.20;1.57;;;14.50;99.90;;;;;;5103285;28;20445;-82
2022/09/26 11:27:51;;;;;;;2.10;1.97;;;14.50;99.90;;;;;;5116666;27;20496;-82
2022/09/26 11:30:20;;;;;;;2.60;1.80;;;14.40;99.90;;;;;;5119793;28;20488;-82
2022/09/26 11:32:56;;;;;;;1.97;1.63;;;14.50;99.90;;;;;;5117064;28;20459;-82
2022/09/26 11:35:32;;;;;;;3.47;2.00;;;14.70;99.90;;;;;;5102556;28;20439;-81
2022/09/26 11:38:37;;;;;;;1.70;1.60;;;14.60;99.90;;;;;;5092222;28;20522;-81
2022/09/26 11:41:37;;;;;;;2.10;1.50;;;14.80;99.50;;;;;;5096238;28;20577;-82
2022/09/26 11:44:39;;;;;;;2.60;1.80;;;14.80;99.00;;;;;;5079241;28;20473;-82
2022/09/26 11:47:15;;;;;;;1.87;1.40;;;14.90;99.20;;;;;;5097487;28;20521;-82
2022/09/26 11:50:00;;;;;;;1.60;1.50;;;15.00;98.80;;;;;;5116662;28;20450;-81
2022/09/26 11:52:33;;;;;;;1.33;1.23;;;15.00;98.60;;;;;;5091058;28;20478;-80
2022/09/26 11:55:25;;;;;;;1.70;1.60;;;15.10;98.30;;;;;;5090574;28;20438;-82
2022/09/26 11:58:13;;;;;;;1.80;1.33;;;15.20;98.20;;;;;;5077370;28;20442;-83
2022/09/26 12:00:53;;;;;;;3.97;1.20;;;15.30;97.70;;;;;;5079964;28;20458;-82
2022/09/26 12:03:54;;;;;;;1.83;1.20;;;15.30;97.30;;;;;;5075927;28;20529;-82
2022/09/26 12:06:50;;;;;;;2.60;1.37;;;15.40;97.00;;;;;;5077395;28;20484;-83
2022/09/26 12:09:49;;;;;;;2.53;1.20;;;15.50;97.00;;;;;;5071386;28;20454;-82
2022/09/26 12:12:30;;;;;;;1.37;1.27;;;15.40;96.20;;;;;;5075868;28;20556;-83
2022/09/26 12:15:35;;;;;;;5.67;1.30;;;15.30;95.80;;;;;;5080307;28;20962;-83
2022/09/26 12:18:21;;;;;;;1.50;1.10;;;15.20;95.80;;;;;;5066803;28;20450;-83
2022/09/26 12:21:18;;;;;;;1.33;1.10;;;15.10;96.00;;;;;;5081963;28;20534;-83
2022/09/26 12:23:54;;;;;;;1.37;1.00;;;15.20;95.90;;;;;;5079354;28;20500;-83
2022/09/26 12:26:36;;;;;;;0.90;0.90;;;15.30;95.70;;;;;;5081445;28;20473;-83
2022/09/26 12:29:26;;;;;;;1.60;1.20;;;15.40;95.20;;;;;;5087185;28;20959;-81
2022/09/26 12:32:22;;;;;;;3.07;1.10;;;15.30;95.20;;;;;;5081110;28;20457;-82
2022/09/26 12:35:12;;;;;;;2.40;1.30;;;15.30;94.80;;;;;;5100188;28;20552;-83
2022/09/26 12:37:51;;;;;;;3.30;1.20;;;15.10;95.00;;;;;;5074724;28;20457;-82
2022/09/26 12:40:32;;;;;;;1.10;1.00;;;15.10;95.40;;;;;;5089216;28;20564;-83
2022/09/26 12:43:12;;;;;;;1.13;1.10;;;15.10;95.50;;;;;;5080845;28;20486;-83
2022/09/26 12:46:21;;;;;;;1.17;1.00;;;15.10;95.60;;;;;;5096527;28;20470;-83
2022/09/26 12:48:57;;;;;;;1.20;1.10;;;15.10;95.60;;;;;;5069135;28;20457;-82
2022/09/26 12:51:54;;;;;;;1.10;1.00;;;15.10;95.70;;;;;;5096469;28;20464;-82
2022/09/26 12:54:51;;;;;;;1.20;1.10;;;15.20;95.80;;;;;;5082705;28;20465;-83
2022/09/26 12:57:38;;;;;;;4.00;1.60;;;15.10;95.80;;;;;;5086687;28;20446;-82
2022/09/26 13:00:17;;;;;;;3.20;1.50;;;15.20;95.80;;;;;;5086986;28;20533;-82
2022/09/26 13:03:08;;;;;;;1.53;1.30;;;15.10;95.60;;;;;;5106018;28;20511;-81
2022/09/26 13:05:49;;;;;;;3.43;1.60;;;15.20;95.80;;;;;;5102787;28;20434;-82
2022/09/26 13:08:21;;;;;;;1.10;1.00;;;15.30;95.90;;;;;;5098930;28;20530;-81
2022/09/26 13:11:07;;;;;;;1.23;1.10;;;15.20;96.10;;;;;;5081023;28;20972;-80
2022/09/26 13:13:57;;;;;;;1.70;1.20;;;15.10;96.20;;;;;;5088221;28;20556;-82
2022/09/26 13:16:45;;;;;;;1.23;1.13;;;14.90;96.40;;;;;;5087282;28;20472;-81
2022/09/26 13:19:54;;;;;;;1.67;1.10;;;14.90;97.60;;;;;;5097297;28;20447;-81
2022/09/26 13:22:31;;;;;;;2.23;1.20;;;14.80;98.40;;;;;;5049119;28;20504;-83
2022/09/26 13:25:31;;;;;;;1.80;1.30;;;14.60;98.70;;;;;;5044657;28;20550;-83
2022/09/26 13:28:16;;;;;;;1.80;1.67;;;14.60;99.10;;;;;;5072861;28;20557;-83
2022/09/26 13:30:50;;;;;;;3.40;1.77;;;14.80;99.70;;;;;;5086609;28;20496;-82
2022/09/26 13:33:40;;;;;;;3.90;1.70;;;14.80;99.80;;;;;;5085382;28;20544;-83
2022/09/26 13:36:10;;;;;;;4.50;2.03;;;14.80;99.60;;;;;;5093876;28;20449;-82
2022/09/26 13:39:05;;;;;;;2.13;1.93;;;14.60;99.60;;;;;;5089220;28;20495;-80
2022/09/26 13:41:50;;;;;;;3.03;1.83;;;14.70;99.90;;;;;;5090960;28;20454;-81